Flight Track Log - Related Links

Times and Time Zones

All times are in EDT time to prevent confusion due to time zone crossing. See the KAP550 flight status page for this flight to view local times or setup timezone preferences in your user account.

Time Position Orientation Groundspeed Altitude Reporting Facility
EDT Latitude Longitude Course Direction KTS MPH feet Rate Location/Type
Tue 01:12:19 PM 44.7831 -74.8003 160° South 151 174 6,400  Level Boston Center
Tue 01:13:19 PM 44.7481 -74.7842 162° South 145 167 7,700 1,350 Climbing Boston Center
Tue 01:14:19 PM 44.7086 -74.7708 166° South 140 161 9,100 1,250 Climbing Boston Center
Tue 01:15:19 PM 44.6694 -74.7489 158° South 146 168 10,200 1,000 Climbing Boston Center
Tue 01:16:19 PM 44.6283 -74.7269 159° South 151 174 11,100 450 Climbing Boston Center
Tue 01:17:00 PM 44.6979 -74.7239 160° South  Level FlightAware Approximate
Tue 01:17:19 PM 44.5786 -74.7017 160° South 164 189 11,100  Level Boston Center
Tue 01:18:19 PM 44.5272 -74.6764 161° South 186 214 11,100  Level Boston Center
Tue 01:19:19 PM 44.4756 -74.6453 157° South 196 226 11,100  Level Boston Center
Tue 01:20:19 PM 44.4239 -74.6231 163° South 196 226 11,100  Level Boston Center
Tue 01:21:19 PM 44.3703 -74.5950 159° South 201 231 11,100  Level Boston Center
Tue 01:22:19 PM 44.3186 -74.5700 161° South 206 237 11,100 -50 Level Boston Center
Tue 01:23:19 PM 44.2669 -74.5447 161° South 206 237 11,000 -50 Descending Boston Center
Tue 01:24:19 PM 44.2133 -74.5197 162° South 206 237 11,000 50 Level Boston Center
Tue 01:25:19 PM 44.1617 -74.4919 159° South 206 237 11,100  Climbing Boston Center
Tue 01:26:19 PM 44.1081 -74.4669 161° South 206 237 11,000 -50 Descending Boston Center
Tue 01:27:19 PM 44.0564 -74.4392 159° South 206 237 11,000  Level Boston Center
Tue 01:28:19 PM 44.0028 -74.4144 162° South 206 237 11,000  Level Boston Center
Tue 01:29:19 PM 43.9489 -74.3867 160° South 206 237 11,000 50 Level Boston Center
Tue 01:30:19 PM 43.8972 -74.3619 161° South 206 237 11,100 50 Climbing Boston Center
Tue 01:31:19 PM 43.8436 -74.3372 162° South 206 237 11,100  Level Boston Center
Tue 01:32:19 PM 43.7919 -74.3097 159° South 206 237 11,100  Level Boston Center
Tue 01:33:19 PM 43.7403 -74.2850 161° South 206 237 11,100  Level Boston Center
Tue 01:34:19 PM 43.6864 -74.2575 160° South 206 237 11,100  Level Boston Center
Tue 01:35:19 PM 43.6347 -74.2331 161° South 206 237 11,100  Level Boston Center
Tue 01:36:31 PM 43.5808 -74.2086 162° South 206 237 11,100 -273 Level Boston Center
Tue 01:37:31 PM 43.5189 -74.1781 160° South 206 237 10,500 -550 Descending Boston Center
Tue 01:38:31 PM 43.4672 -74.1508 159° South 206 237 10,000 -465 Descending Boston Center
Tue 01:39:40 PM 43.4092 -74.1233 161° South 194 223 9,500 -545 Descending Boston Center
Tue 01:40:43 PM 43.3594 -74.0992 161° South 206 237 8,800 -694 Descending Boston Center
Tue 01:41:41 PM 43.3078 -74.0750 161° South 194 223 8,100 -650 Descending Boston Center
Tue 01:42:43 PM 43.2603 -74.0481 158° South 201 231 7,500 -541 Descending Boston Center
Tue 01:43:43 PM 43.2044 -74.0208 160° South 201 231 7,000 -450 Descending Boston Center
Tue 01:44:43 PM 43.1589 -73.9997 161° South 190 219 6,600 -500 Descending Boston Center
Tue 01:45:43 PM 43.1028 -73.9728 161° South 190 219 6,000 -600 Descending Boston Center
Tue 01:46:43 PM 43.0594 -73.9547 163° South 190 219 5,400 -724 Descending Boston Center
Tue 01:47:39 PM 43.0072 -73.9450 172° South 190 219 4,600 -667 Descending Boston Center
Tue 01:48:40 PM 42.9556 -73.9322 170° South 188 216 4,100 -242 Descending Boston Center
Tue 01:49:43 PM 42.9056 -73.9197 170° South 183 211 4,100  Level Boston Center
Tue 01:50:43 PM 42.8703 -73.9103 169° South 178 205 4,100  Level Boston Center
Tue 01:51:43 PM 42.8225 -73.9008 172° South 172 198 4,100 -190 Level Boston Center
Tue 01:52:49 PM 42.7828 -73.8969 176° South 124 143 3,700 -450 Descending Boston Center
Tue 01:53:43 PM 42.7539 -73.8933 175° South 148 170 3,200 -421 Descending Boston Center
Tue 01:54:43 PM 42.7081 -73.8925 179° South 138 159 2,900 -738 Descending Boston Center
Tue 01:55:45 PM 42.7067 -73.8331 92° East 126 145 1,700 -1,230 Descending Boston Center
Tue 01:56:45 PM 42.7319 -73.8081 36° Northeast 139 160 400 -1,300 Descending Boston Center
Tue 01:58:00 PM 42.7491 -73.8020 77° East  Level Estimated
Tue 02:05:00 PM 42.7491 -73.8020 170° South  Level Estimated
Tue 02:06:00 PM 42.7491 -73.8020 170° South  Level Estimated

Login

Don't have an account? Register now (free) for customized features, flight alerts, and more!